createdAt,value
2018-01-12T00:00:55.238Z,2.30
2018-01-12T00:03:23.247Z,2.30
2018-01-12T00:05:53.937Z,2.30
2018-01-12T00:08:21.967Z,2.30
2018-01-12T00:10:52.939Z,2.20
2018-01-12T00:13:21.959Z,2.30
2018-01-12T00:15:49.979Z,2.30
2018-01-12T00:18:23.441Z,2.30
2018-01-12T00:20:57.627Z,2.40
2018-01-12T00:23:26.663Z,2.40
2018-01-12T00:25:54.670Z,2.40
2018-01-12T00:28:23.683Z,2.30
2018-01-12T00:30:51.702Z,2.30
2018-01-12T00:33:23.667Z,2.30
2018-01-12T00:35:58.838Z,2.30
2018-01-12T00:38:28.870Z,2.30
2018-01-12T00:40:57.858Z,2.30
2018-01-12T00:43:25.874Z,2.30
2018-01-12T00:45:53.910Z,2.30
2018-01-12T00:48:23.904Z,2.30
2018-01-12T00:50:52.900Z,2.30
2018-01-12T00:53:20.910Z,2.30
2018-01-12T00:55:48.931Z,2.30
2018-01-12T00:58:21.606Z,2.30
2018-01-12T01:00:49.618Z,2.30
2018-01-12T01:03:18.402Z,2.30
2018-01-12T01:05:46.451Z,2.30
2018-01-12T01:08:22.374Z,2.30
2018-01-12T01:11:00.582Z,2.20
2018-01-12T01:13:30.514Z,2.20
2018-01-12T01:16:16.258Z,2.20
2018-01-12T01:18:44.266Z,2.20
2018-01-12T01:21:16.610Z,2.20
2018-01-12T01:23:46.562Z,2.10
2018-01-12T01:26:15.534Z,2.10
2018-01-12T01:28:43.550Z,2.10
2018-01-12T01:31:14.247Z,2.10
2018-01-12T01:33:43.235Z,2.00
2018-01-12T01:36:11.266Z,2.00
2018-01-12T01:38:39.282Z,2.00
2018-01-12T01:41:08.274Z,2.00
2018-01-12T01:43:42.454Z,2.10
2018-01-12T01:46:11.486Z,2.10
2018-01-12T01:48:44.270Z,2.10
2018-01-12T01:51:15.618Z,2.10
2018-01-12T01:53:46.886Z,2.00
2018-01-12T01:56:15.686Z,2.10
2018-01-12T01:58:45.650Z,2.10
2018-01-12T02:01:15.670Z,2.10
2018-01-12T02:03:43.694Z,2.10
2018-01-12T02:06:21.814Z,2.10
2018-01-12T02:08:54.222Z,2.10
2018-01-12T02:11:23.203Z,2.10
2018-01-12T02:13:57.921Z,2.10
2018-01-12T02:16:25.958Z,2.10
2018-01-12T02:18:53.982Z,2.20
2018-01-12T02:21:22.002Z,2.10
2018-01-12T02:23:50.014Z,2.10
2018-01-12T02:26:29.827Z,2.10
2018-01-12T02:28:57.876Z,2.10
2018-01-12T02:31:31.717Z,2.00
2018-01-12T02:34:01.654Z,2.00
2018-01-12T02:36:32.817Z,2.00
2018-01-12T02:39:08.735Z,2.00
2018-01-12T02:41:41.614Z,2.10
2018-01-12T02:44:10.645Z,2.10
2018-01-12T02:46:42.078Z,2.10
2018-01-12T02:49:12.114Z,2.10
2018-01-12T02:51:41.106Z,2.20
2018-01-12T02:54:10.085Z,2.20
2018-01-12T02:56:38.107Z,2.20
2018-01-12T02:59:07.043Z,2.20
2018-01-12T03:01:35.066Z,2.30
2018-01-12T03:04:03.078Z,2.20
2018-01-12T03:06:35.138Z,2.20
2018-01-12T03:09:03.165Z,2.30
2018-01-12T03:11:31.190Z,2.20
2018-01-12T03:14:03.770Z,2.30
2018-01-12T03:16:31.785Z,2.20
2018-01-12T03:18:59.806Z,2.30
2018-01-12T03:21:52.925Z,2.20
2018-01-12T03:24:25.225Z,2.20
2018-01-12T03:26:56.022Z,2.20
2018-01-12T03:29:24.958Z,2.20
2018-01-12T03:31:52.985Z,2.20
2018-01-12T03:34:42.158Z,2.20
2018-01-12T03:37:12.117Z,2.10
2018-01-12T03:39:42.133Z,2.10
2018-01-12T03:42:15.622Z,2.10
2018-01-12T03:44:43.650Z,2.00
2018-01-12T03:47:19.861Z,2.00
2018-01-12T03:49:55.913Z,2.00
2018-01-12T03:52:25.949Z,2.10
2018-01-12T03:54:54.742Z,2.10
2018-01-12T03:57:27.401Z,2.10
2018-01-12T03:59:55.410Z,2.10
2018-01-12T04:02:27.658Z,2.10
2018-01-12T04:04:57.341Z,2.10
2018-01-12T04:07:28.614Z,2.10
2018-01-12T04:10:03.374Z,2.10
2018-01-12T04:12:35.165Z,2.10
2018-01-12T04:15:11.489Z,2.20
2018-01-12T04:17:41.474Z,2.20
2018-01-12T04:20:14.229Z,2.10
2018-01-12T04:22:43.265Z,2.10
2018-01-12T04:25:12.218Z,2.10
2018-01-12T04:27:40.233Z,2.10
2018-01-12T04:30:08.270Z,2.10
2018-01-12T04:32:37.237Z,2.10
2018-01-12T04:35:07.262Z,2.00
2018-01-12T04:37:39.830Z,2.00
2018-01-12T04:40:07.853Z,2.00
2018-01-12T04:42:41.941Z,2.10
2018-01-12T04:45:19.377Z,2.20
2018-01-12T04:47:48.393Z,2.10
2018-01-12T04:50:16.412Z,2.20
2018-01-12T04:52:44.421Z,2.20
2018-01-12T04:55:14.317Z,2.20
2018-01-12T04:57:42.342Z,2.20
2018-01-12T05:00:14.249Z,2.20
2018-01-12T05:02:42.293Z,2.30
2018-01-12T05:05:11.069Z,2.20
2018-01-12T05:07:39.853Z,2.20
2018-01-12T05:10:18.505Z,2.30
2018-01-12T05:12:48.486Z,2.20
2018-01-12T05:15:18.266Z,2.30
2018-01-12T05:17:47.273Z,2.30
2018-01-12T05:20:15.277Z,2.30
2018-01-12T05:22:44.225Z,2.30
2018-01-12T05:25:33.345Z,2.20
2018-01-12T05:28:06.490Z,2.20
2018-01-12T05:30:38.241Z,2.30
2018-01-12T05:33:25.397Z,2.20
2018-01-12T05:35:59.729Z,2.30
2018-01-12T05:38:35.909Z,2.30
2018-01-12T05:41:07.069Z,2.30
2018-01-12T05:43:40.925Z,2.30
2018-01-12T05:46:09.861Z,2.20
2018-01-12T05:48:38.873Z,2.20
2018-01-12T05:51:11.736Z,2.20
2018-01-12T05:53:39.741Z,2.20
2018-01-12T05:56:10.445Z,2.20
2018-01-12T05:58:40.460Z,2.20
2018-01-12T06:01:20.201Z,2.20
2018-01-12T06:04:00.040Z,2.10
2018-01-12T06:06:41.017Z,2.20
2018-01-12T06:09:09.029Z,2.20
2018-01-12T06:11:41.569Z,2.20
2018-01-12T06:14:13.017Z,2.20
2018-01-12T06:16:41.058Z,2.20
2018-01-12T06:19:09.070Z,2.30
2018-01-12T06:21:37.093Z,2.30
2018-01-12T06:24:07.033Z,2.30
2018-01-12T06:26:40.061Z,2.40
2018-01-12T06:29:10.761Z,2.40
2018-01-12T06:31:38.765Z,2.40
2018-01-12T06:37:05.081Z,2.40
2018-01-12T06:39:33.100Z,2.40
2018-01-12T06:42:04.436Z,2.40
2018-01-12T06:44:32.400Z,2.40
2018-01-12T06:47:01.173Z,2.30
2018-01-12T06:49:29.989Z,2.30
2018-01-12T06:51:58.007Z,2.30
2018-01-12T06:54:33.757Z,2.30
2018-01-12T06:57:05.501Z,2.30
2018-01-12T06:59:35.433Z,2.30
2018-01-12T07:02:03.465Z,2.30
2018-01-12T07:04:31.481Z,2.30
2018-01-12T07:07:03.529Z,2.20
2018-01-12T07:09:35.812Z,2.20
2018-01-12T07:12:05.873Z,2.20
2018-01-12T07:14:35.856Z,2.20
2018-01-12T07:17:03.869Z,2.30
2018-01-12T07:19:41.577Z,2.30
2018-01-12T07:22:21.521Z,2.30
2018-01-12T07:24:55.209Z,2.40
2018-01-12T07:27:24.152Z,2.30
2018-01-12T07:29:53.072Z,2.30
2018-01-12T07:32:22.761Z,2.30
2018-01-12T07:34:54.498Z,2.30
2018-01-12T07:37:22.529Z,2.30
2018-01-12T07:39:56.444Z,2.30
2018-01-12T07:42:25.380Z,2.30
2018-01-12T07:44:53.396Z,2.40
2018-01-12T07:47:22.324Z,2.40
2018-01-12T07:49:52.337Z,2.40
2018-01-12T07:52:22.356Z,2.50
2018-01-12T07:55:01.656Z,2.50
2018-01-12T07:57:30.584Z,2.60
2018-01-12T08:00:03.752Z,2.60
2018-01-12T08:02:51.031Z,2.60
2018-01-12T08:05:24.556Z,2.60
2018-01-12T08:07:56.245Z,2.60
2018-01-12T08:10:24.264Z,2.60
2018-01-12T08:12:54.232Z,2.60
2018-01-12T08:15:24.916Z,2.60
2018-01-12T08:17:52.926Z,2.60
2018-01-12T08:20:20.932Z,2.60
2018-01-12T08:22:51.617Z,2.70
2018-01-12T08:25:20.632Z,2.70
2018-01-12T08:27:51.804Z,2.70
2018-01-12T08:30:21.572Z,2.80
2018-01-12T08:32:52.839Z,2.80
2018-01-12T08:35:20.847Z,2.80
2018-01-12T08:37:48.900Z,2.90
2018-01-12T08:40:18.688Z,2.90
2018-01-12T08:42:46.696Z,2.90
2018-01-12T08:45:20.760Z,3.00
2018-01-12T08:47:50.436Z,3.00
2018-01-12T08:50:33.216Z,3.10
2018-01-12T08:53:01.996Z,3.20
2018-01-12T08:55:32.707Z,3.10
2018-01-12T08:58:01.600Z,3.20
2018-01-12T09:00:29.616Z,3.20
2018-01-12T09:02:59.568Z,3.20
2018-01-12T09:05:27.576Z,3.30
2018-01-12T09:07:58.267Z,3.30
2018-01-12T09:10:31.100Z,3.30
2018-01-12T09:13:03.220Z,3.30
2018-01-12T09:15:31.241Z,3.30
2018-01-12T09:18:00.900Z,3.40
2018-01-12T09:20:33.899Z,3.30
2018-01-12T09:25:59.516Z,3.40
2018-01-12T09:28:29.436Z,3.40
2018-01-12T09:30:57.444Z,3.40
2018-01-12T09:33:27.119Z,3.50
2018-01-12T09:35:57.128Z,3.50
2018-01-12T09:38:25.148Z,3.60
2018-01-12T09:40:54.084Z,3.60
2018-01-12T09:43:26.767Z,3.60
2018-01-12T09:45:54.803Z,3.60
2018-01-12T09:48:33.223Z,3.60
2018-01-12T09:51:01.451Z,3.50
2018-01-12T09:53:39.916Z,3.50
2018-01-12T09:56:07.939Z,3.50
2018-01-12T10:01:03.707Z,3.60
2018-01-12T10:03:36.211Z,3.60
2018-01-12T10:06:08.077Z,3.60
2018-01-12T10:08:41.055Z,3.70
2018-01-12T10:11:09.067Z,3.80
2018-01-12T10:13:41.516Z,3.80
2018-01-12T10:16:09.519Z,3.80
2018-01-12T10:18:42.407Z,3.80
2018-01-12T10:21:22.558Z,3.90
2018-01-12T10:23:50.547Z,4.00
2018-01-12T10:26:19.451Z,4.00
2018-01-12T10:28:59.297Z,4.10
2018-01-12T10:31:49.839Z,4.30
2018-01-12T10:34:43.387Z,4.20
2018-01-12T10:37:11.407Z,4.20
2018-01-12T10:39:52.407Z,4.20
2018-01-12T10:42:20.427Z,4.30
2018-01-12T10:44:49.235Z,4.30
2018-01-12T10:47:26.031Z,4.30
2018-01-12T10:50:17.392Z,4.40
2018-01-12T10:52:49.083Z,4.50
2018-01-12T10:55:31.059Z,4.50
2018-01-12T10:58:04.319Z,4.60
2018-01-12T11:00:36.886Z,4.60
2018-01-12T11:03:06.923Z,4.60
2018-01-12T11:05:38.567Z,4.80
2018-01-12T11:08:17.059Z,4.70
2018-01-12T11:10:49.239Z,5.30
2018-01-12T11:13:17.266Z,5.20
2018-01-12T11:15:45.286Z,5.40
2018-01-12T11:18:13.303Z,5.40
2018-01-12T11:20:41.962Z,5.60
2018-01-12T11:23:11.643Z,5.90
2018-01-12T11:25:40.565Z,6.00
2018-01-12T11:28:18.878Z,6.00
2018-01-12T11:30:49.543Z,6.30
2018-01-12T11:33:28.270Z,6.30
2018-01-12T11:35:59.968Z,6.30
2018-01-12T11:38:40.302Z,6.50
2018-01-12T11:41:11.422Z,6.80
2018-01-12T11:43:39.443Z,6.70
2018-01-12T11:46:07.459Z,6.70
2018-01-12T11:48:35.471Z,6.60
2018-01-12T11:51:09.439Z,6.60
2018-01-12T11:53:40.406Z,6.50
2018-01-12T11:56:08.418Z,6.50
2018-01-12T11:58:44.518Z,6.30
2018-01-12T12:01:14.451Z,6.10
2018-01-12T12:03:54.986Z,5.90
2018-01-12T12:06:23.002Z,5.70
2018-01-12T12:08:51.016Z,5.60
2018-01-12T12:11:20.926Z,5.60
2018-01-12T12:13:53.554Z,5.70
2018-01-12T12:16:28.370Z,5.70
2018-01-12T12:18:56.394Z,5.50
2018-01-12T12:21:24.418Z,5.30
2018-01-12T12:23:53.102Z,5.20
2018-01-12T12:26:22.102Z,5.10
2018-01-12T12:28:50.110Z,5.00
2018-01-12T12:31:18.114Z,5.00
2018-01-12T12:33:46.122Z,5.00
2018-01-12T12:36:14.902Z,5.00
2018-01-12T12:38:48.278Z,5.00
2018-01-12T12:41:16.290Z,5.00
2018-01-12T12:43:44.310Z,5.00
2018-01-12T12:46:16.746Z,4.90
2018-01-12T12:48:46.761Z,4.70
2018-01-12T12:51:15.695Z,4.60
2018-01-12T12:53:44.686Z,4.70
2018-01-12T12:56:15.918Z,4.80
2018-01-12T12:58:48.814Z,4.90
2018-01-12T13:01:16.814Z,5.10
2018-01-12T13:03:46.598Z,5.60
2018-01-12T13:06:15.514Z,5.50
2018-01-12T13:08:44.290Z,6.00
2018-01-12T13:11:12.310Z,6.00
2018-01-12T13:13:40.326Z,6.20
2018-01-12T13:16:16.162Z,6.50
2018-01-12T13:18:46.138Z,6.80
2018-01-12T13:21:15.917Z,7.30
2018-01-12T13:23:48.574Z,7.30
2018-01-12T13:26:16.593Z,7.50
2018-01-12T13:28:44.602Z,7.50
2018-01-12T13:31:14.621Z,7.50
2018-01-12T13:33:46.777Z,7.30
2018-01-12T13:36:14.785Z,7.30
2018-01-12T13:38:42.830Z,7.30
2018-01-12T13:41:15.410Z,7.30
2018-01-12T13:43:43.422Z,7.00
2018-01-12T13:46:12.371Z,6.70
2018-01-12T13:48:40.374Z,6.50
2018-01-12T13:51:13.624Z,6.60
2018-01-12T13:53:42.626Z,6.60
2018-01-12T13:56:10.643Z,6.70
2018-01-12T13:58:39.566Z,6.50
2018-01-12T14:01:14.381Z,6.40
2018-01-12T14:03:47.122Z,6.50
2018-01-12T14:06:15.901Z,6.70
2018-01-12T14:08:45.881Z,6.70
2018-01-12T14:11:19.494Z,6.90
2018-01-12T14:13:50.638Z,6.80
2018-01-12T14:16:27.066Z,6.70
2018-01-12T14:18:55.992Z,6.70
2018-01-12T14:21:25.038Z,6.60
2018-01-12T14:23:53.050Z,6.40
2018-01-12T14:26:29.521Z,6.30
2018-01-12T14:28:58.522Z,6.20
2018-01-12T14:31:27.435Z,6.00
2018-01-12T14:33:56.194Z,5.80
2018-01-12T14:36:29.890Z,5.80
2018-01-12T14:38:57.912Z,5.90
2018-01-12T14:41:39.085Z,5.80
2018-01-12T14:44:07.117Z,5.80
2018-01-12T14:46:38.966Z,5.70
2018-01-12T14:49:07.884Z,5.60
2018-01-12T14:51:35.899Z,5.50
2018-01-12T14:54:04.818Z,5.30
2018-01-12T14:56:33.802Z,5.30
2018-01-12T14:59:06.069Z,5.10
2018-01-12T15:01:37.126Z,5.00
2018-01-12T15:04:05.145Z,4.90
2018-01-12T15:06:33.220Z,4.80
2018-01-12T15:09:03.181Z,4.80
2018-01-12T15:11:32.182Z,4.70
2018-01-12T15:14:00.193Z,4.70
2018-01-12T15:16:28.206Z,4.60
2018-01-12T15:18:57.201Z,4.50
2018-01-12T15:21:32.170Z,4.40
2018-01-12T15:24:17.756Z,4.30
2018-01-12T15:26:54.734Z,4.20
2018-01-12T15:29:24.401Z,4.10
2018-01-12T15:31:53.315Z,4.10
2018-01-12T15:34:21.358Z,4.10
2018-01-12T15:37:01.873Z,4.10
2018-01-12T15:39:32.898Z,4.10
2018-01-12T15:42:04.745Z,4.10
2018-01-12T15:44:32.778Z,4.10
2018-01-12T15:47:04.114Z,4.10
2018-01-12T15:49:33.161Z,4.10
2018-01-12T15:52:02.942Z,4.10
2018-01-12T15:54:37.269Z,4.10
2018-01-12T15:57:05.273Z,4.10
2018-01-12T15:59:39.822Z,4.10
2018-01-12T16:02:07.817Z,4.00
2018-01-12T16:04:35.830Z,4.00
2018-01-12T16:07:04.612Z,4.00
2018-01-12T16:09:35.286Z,4.00
2018-01-12T16:12:04.313Z,4.00
2018-01-12T16:14:38.085Z,4.00
2018-01-12T16:17:10.286Z,4.00
2018-01-12T16:19:40.293Z,3.90
2018-01-12T16:22:12.846Z,3.80
2018-01-12T16:24:43.910Z,3.70
2018-01-12T16:27:15.574Z,3.60
2018-01-12T16:29:47.426Z,3.50
2018-01-12T16:32:29.578Z,3.40
2018-01-12T16:34:58.509Z,3.30
2018-01-12T16:37:26.537Z,3.20
2018-01-12T16:39:55.476Z,3.10
2018-01-12T16:42:23.493Z,3.10
2018-01-12T16:44:51.509Z,3.00
2018-01-12T16:47:26.014Z,2.90
2018-01-12T16:49:59.749Z,2.90
2018-01-12T16:52:30.797Z,2.80
2018-01-12T16:55:16.825Z,2.90
2018-01-12T16:57:48.117Z,2.80
2018-01-12T17:00:16.126Z,2.80
2018-01-12T17:02:48.961Z,2.80
2018-01-12T17:05:16.969Z,2.80
2018-01-12T17:07:46.757Z,2.80
2018-01-12T17:10:17.697Z,2.80
2018-01-12T17:12:47.193Z,2.80
2018-01-12T17:15:16.097Z,2.80
2018-01-12T17:17:48.156Z,2.80
2018-01-12T17:20:16.165Z,2.80
2018-01-12T17:22:44.193Z,2.80
2018-01-12T17:25:12.233Z,2.80
2018-01-12T17:27:40.233Z,2.80
2018-01-12T17:30:13.341Z,2.80
2018-01-12T17:32:47.225Z,2.70
2018-01-12T17:35:16.162Z,2.70
2018-01-12T17:37:44.177Z,2.70
2018-01-12T17:40:12.193Z,2.70
2018-01-12T17:42:41.865Z,2.70
2018-01-12T17:45:09.893Z,2.70
2018-01-12T17:47:38.817Z,2.70
2018-01-12T17:50:10.121Z,2.70
2018-01-12T17:52:39.041Z,2.70
2018-01-12T17:55:07.057Z,2.60
2018-01-12T17:57:36.829Z,2.60
2018-01-12T18:00:09.089Z,2.60
2018-01-12T18:02:39.037Z,2.60
2018-01-12T18:05:09.757Z,2.60
2018-01-12T18:07:38.649Z,2.60
2018-01-12T18:10:06.660Z,2.60
2018-01-12T18:12:34.673Z,2.70
2018-01-12T18:15:03.657Z,2.70
2018-01-12T18:17:31.669Z,2.70
2018-01-12T18:20:02.382Z,2.70
2018-01-12T18:22:31.417Z,2.70
2018-01-12T18:24:59.441Z,2.70
2018-01-12T18:27:28.349Z,2.70
2018-01-12T18:29:56.368Z,2.80
2018-01-12T18:32:24.372Z,2.80
2018-01-12T18:34:53.373Z,2.90
2018-01-12T18:37:28.660Z,2.90
2018-01-12T18:39:56.681Z,2.90
2018-01-12T18:42:24.721Z,3.00
2018-01-12T18:44:53.732Z,3.00
2018-01-12T18:47:23.744Z,3.00
2018-01-12T18:49:56.388Z,3.00
2018-01-12T18:52:24.444Z,3.00
2018-01-12T18:54:54.144Z,3.00
2018-01-12T18:57:23.923Z,3.00
2018-01-12T18:59:51.936Z,3.00
2018-01-12T19:02:21.856Z,3.00
2018-01-12T19:04:55.860Z,3.00
2018-01-12T19:07:24.800Z,3.00
2018-01-12T19:09:53.712Z,3.00
2018-01-12T19:12:21.724Z,3.00
2018-01-12T19:14:49.768Z,3.00
2018-01-12T19:17:19.548Z,3.00
2018-01-12T19:19:53.740Z,3.00
2018-01-12T19:22:21.783Z,3.00
2018-01-12T19:24:51.744Z,2.90
2018-01-12T19:27:20.835Z,2.90
2018-01-12T19:29:52.220Z,2.90
2018-01-12T19:32:21.004Z,2.50
2018-01-12T19:34:49.788Z,2.20
2018-01-12T19:37:19.563Z,2.00
2018-01-12T19:39:47.580Z,2.00
2018-01-12T19:42:15.632Z,1.80
2018-01-12T19:44:44.416Z,1.40
2018-01-12T19:47:12.436Z,1.40
2018-01-12T19:50:00.432Z,1.30
2018-01-12T19:52:31.114Z,0.90
2018-01-12T19:55:01.053Z,0.90
2018-01-12T19:57:29.044Z,0.70
2018-01-12T19:59:58.829Z,0.50
2018-01-12T20:02:34.059Z,0.50
2018-01-12T20:05:02.084Z,0.50
2018-01-12T20:07:30.860Z,0.40
2018-01-12T20:09:59.643Z,0.30
2018-01-12T20:12:29.466Z,0.20
2018-01-12T20:14:58.472Z,0.20
2018-01-12T20:17:27.423Z,0.10
2018-01-12T20:19:56.396Z,0.00
2018-01-12T20:22:25.333Z,0.00
2018-01-12T20:24:54.104Z,0.00
2018-01-12T20:27:27.175Z,-0.10
2018-01-12T20:29:55.195Z,-0.20
2018-01-12T20:32:24.124Z,-0.30
2018-01-12T20:34:52.193Z,-0.30
2018-01-12T20:37:20.172Z,-0.40
2018-01-12T20:39:49.087Z,-0.50
2018-01-12T20:42:18.876Z,-0.60
2018-01-12T20:44:58.488Z,-0.60
2018-01-12T20:47:26.503Z,-0.60
2018-01-12T20:49:56.308Z,-0.60
2018-01-12T20:52:26.352Z,-0.60
2018-01-12T20:54:59.120Z,-0.60
2018-01-12T20:57:31.051Z,-0.70
2018-01-12T21:00:07.462Z,-0.70
2018-01-12T21:02:35.508Z,-0.80
2018-01-12T21:05:04.292Z,-0.80
2018-01-12T21:07:33.080Z,-0.80
2018-01-12T21:10:01.872Z,-0.70
2018-01-12T21:12:45.127Z,-0.80
2018-01-12T21:15:25.983Z,-0.80
2018-01-12T21:17:54.780Z,-1.10
2018-01-12T21:20:28.124Z,-1.10
2018-01-12T21:23:06.663Z,-1.10
2018-01-12T21:25:37.397Z,-1.20
2018-01-12T21:28:09.780Z,-1.20
2018-01-12T21:30:39.468Z,-1.20
2018-01-12T21:33:32.464Z,-1.20
2018-01-12T21:36:02.415Z,-1.20
2018-01-12T21:38:30.445Z,-1.30
2018-01-12T21:41:05.772Z,-1.30
2018-01-12T21:43:34.556Z,-1.30
2018-01-12T21:46:09.099Z,-1.40
2018-01-12T21:48:37.120Z,-1.50
2018-01-12T21:51:07.135Z,-1.50
2018-01-12T21:53:36.128Z,-1.50
2018-01-12T21:56:04.156Z,-1.60
2018-01-12T21:58:35.699Z,-1.50
2018-01-12T22:01:03.740Z,-1.60
2018-01-12T22:03:34.448Z,-1.60
2018-01-12T22:06:07.207Z,-1.70
2018-01-12T22:08:37.148Z,-1.60
2018-01-12T22:11:06.131Z,-1.60
2018-01-12T22:13:37.791Z,-1.60
2018-01-12T22:16:06.767Z,-1.60
2018-01-12T22:18:38.508Z,-1.60
2018-01-12T22:21:11.255Z,-1.70
2018-01-12T22:23:41.027Z,-2.00
2018-01-12T22:26:09.052Z,-2.00
2018-01-12T22:28:39.019Z,-2.00
2018-01-12T22:31:07.047Z,-2.10
2018-01-12T22:33:49.843Z,-2.10
2018-01-12T22:36:19.804Z,-2.20
2018-01-12T22:38:52.792Z,-2.30
2018-01-12T22:41:21.727Z,-2.30
2018-01-12T22:43:55.539Z,-2.30
2018-01-12T22:46:32.335Z,-2.30
2018-01-12T22:49:04.331Z,-2.30
2018-01-12T22:51:36.195Z,-2.20
2018-01-12T22:54:04.207Z,-2.20
2018-01-12T22:56:32.247Z,-2.30
2018-01-12T22:59:01.167Z,-2.30
2018-01-12T23:01:31.179Z,-2.40
2018-01-12T23:04:04.743Z,-2.30
2018-01-12T23:06:33.731Z,-2.20
2018-01-12T23:09:01.761Z,-2.20
2018-01-12T23:11:31.714Z,-2.20
2018-01-12T23:14:00.639Z,-2.20
2018-01-12T23:16:29.423Z,-2.30
2018-01-12T23:19:00.159Z,-2.40
2018-01-12T23:21:32.551Z,-2.50
2018-01-12T23:24:06.411Z,-2.50
2018-01-12T23:26:35.359Z,-2.50
2018-01-12T23:29:04.395Z,-2.40
2018-01-12T23:31:37.895Z,-2.20
2018-01-12T23:34:05.923Z,-2.00
2018-01-12T23:36:33.934Z,-1.70
2018-01-12T23:39:04.935Z,-1.60
2018-01-12T23:41:36.531Z,-1.30
2018-01-12T23:44:10.763Z,-1.10
2018-01-12T23:46:43.104Z,-0.70
2018-01-12T23:49:11.127Z,-0.70
2018-01-12T23:51:40.039Z,-0.60
2018-01-12T23:54:08.155Z,-0.60
2018-01-12T23:56:37.127Z,-0.50
2018-01-12T23:59:11.683Z,-0.50
